Gar Creek, Indiana
Current Conditions -  °F | °C
As of 4:54 PM on Saturday 20 Dec 2014 (Local Time) from KFWA Reporting Station
Light Snow Light Snow  
Wind Chill: 32°   Ceiling: 2100
Heat Index: 32°   Visibility: 6mi
Dew Point: 26°   Wind: 3mph
Humidity: 79%   Direction: 240°WSW
Pressure: 30.27"   Gusts: NA
Location:  41.0925°N, 84.9712°W
Report Text: KFWA 202154Z 24003KT 6SM -SN BKN021 OVC027 00/M03 A3027 RMK AO2 SNB09 SLP260 P0000 T00001033
Loading
Personal Weather Stations






























Interactive Weather Map New forecast layout! Learn more

10-Day Weather Forecast

Advertisements
Track Severe Weather on mobile